Time;durP1;ratioP1;P1;durP2;ratioP2;P2;SDS_P1;SDS_P2;PMS_P1;PMS_P2;Temp;Humidity;BMP_temperature;BMP_pressure;BME280_temperature;BME280_humidity;BME280_pressure;Samples;Min_cycle;Max_cycle;Signal;HPM_P1;HPM_P2
2023/09/11 00:02:11;;;;;;;6.70;5.05;;;436.00;2355.20;;;;;;5070327;28;20060;-61
2023/09/11 00:04:36;;;;;;;8.20;5.72;;;436.00;2355.20;;;;;;5063677;28;20516;-60
2023/09/11 00:07:02;;;;;;;8.20;5.15;;;436.00;2355.20;;;;;;5067985;28;20390;-59
2023/09/11 00:09:28;;;;;;;10.77;5.85;;;436.00;2355.20;;;;;;5068668;28;20025;-61
2023/09/11 00:11:53;;;;;;;8.75;5.60;;;436.00;2355.20;;;;;;5065430;28;20049;-59
2023/09/11 00:14:19;;;;;;;9.38;6.15;;;436.10;2355.20;;;;;;5068838;28;20499;-60
2023/09/11 00:16:45;;;;;;;12.82;5.50;;;436.10;2355.20;;;;;;5066891;28;20028;-58
2023/09/11 00:19:12;;;;;;;7.00;5.32;;;436.10;2355.20;;;;;;5064080;28;20056;-60
2023/09/11 00:21:38;;;;;;;7.32;5.40;;;436.10;2355.20;;;;;;5054561;28;20043;-59
2023/09/11 00:24:04;;;;;;;9.10;5.68;;;436.10;2355.20;;;;;;5059205;28;20041;-59
2023/09/11 00:26:30;;;;;;;9.80;5.93;;;436.10;2355.20;;;;;;5067279;28;20048;-61
2023/09/11 00:28:55;;;;;;;7.97;5.10;;;436.10;2355.20;;;;;;5071306;28;20047;-60
2023/09/11 00:31:21;;;;;;;8.02;5.00;;;436.10;2355.20;;;;;;5069138;28;20417;-64
2023/09/11 00:33:47;;;;;;;7.55;5.65;;;436.00;2355.20;;;;;;5066364;28;20463;-60
2023/09/11 00:36:13;;;;;;;10.43;6.40;;;436.00;2355.20;;;;;;5074062;28;20078;-60
2023/09/11 00:38:39;;;;;;;6.97;5.65;;;435.90;2355.20;;;;;;5065003;28;20025;-61
2023/09/11 00:41:04;;;;;;;9.80;4.93;;;435.90;2355.20;;;;;;5070411;28;20115;-59
2023/09/11 00:43:30;;;;;;;7.30;5.30;;;435.90;2355.20;;;;;;5057882;28;20113;-59
2023/09/11 00:45:57;;;;;;;9.52;6.03;;;435.90;2355.20;;;;;;5067505;28;20082;-65
2023/09/11 00:48:23;;;;;;;6.97;5.28;;;435.90;2355.20;;;;;;5055592;28;20440;-58
2023/09/11 00:50:50;;;;;;;8.20;5.28;;;435.80;2355.20;;;;;;5061983;28;20509;-58
2023/09/11 00:53:17;;;;;;;9.15;5.75;;;435.80;2355.20;;;;;;5066070;28;20114;-59
2023/09/11 00:55:45;;;;;;;12.30;6.25;;;435.70;2355.20;;;;;;5069737;28;20020;-60
2023/09/11 00:58:12;;;;;;;8.23;5.60;;;435.70;2355.20;;;;;;5064439;28;20311;-62
2023/09/11 01:00:38;;;;;;;5.93;5.32;;;435.60;2355.20;;;;;;5075144;28;20016;-59
2023/09/11 01:03:04;;;;;;;7.30;5.75;;;435.60;2355.20;;;;;;5064391;28;20042;-63
2023/09/11 01:05:31;;;;;;;13.77;6.22;;;435.40;2355.20;;;;;;5067474;28;20040;-64
2023/09/11 01:07:57;;;;;;;6.65;5.05;;;435.40;2355.20;;;;;;5066129;28;20039;-61
2023/09/11 01:10:23;;;;;;;7.22;5.03;;;435.30;2355.20;;;;;;5062299;28;20037;-60
2023/09/11 01:12:49;;;;;;;8.45;5.22;;;435.40;2355.20;;;;;;5066644;28;20036;-68
2023/09/11 01:15:15;;;;;;;8.57;5.53;;;435.50;2355.20;;;;;;5063125;28;20032;-58
2023/09/11 01:17:40;;;;;;;10.43;5.93;;;435.50;2355.20;;;;;;5072320;28;20088;-62
2023/09/11 01:20:23;;;;;;;8.50;6.20;;;435.60;2355.20;;;;;;5059845;28;20112;-60
2023/09/11 01:23:16;;;;;;;8.65;5.47;;;435.50;2355.20;;;;;;5066648;28;20032;-59
2023/09/11 01:26:00;;;;;;;7.75;5.30;;;435.50;2355.20;;;;;;5073867;28;20041;-59
2023/09/11 01:28:56;;;;;;;7.20;5.97;;;435.30;2355.20;;;;;;5060809;28;20115;-59
2023/09/11 01:31:24;;;;;;;8.38;6.07;;;435.30;2355.20;;;;;;5057534;28;20037;-58
2023/09/11 01:34:00;;;;;;;8.20;5.88;;;435.20;2355.20;;;;;;5072391;28;20032;-61
2023/09/11 01:36:26;;;;;;;7.25;5.35;;;435.20;2355.20;;;;;;5062641;28;20036;-58
2023/09/11 01:38:52;;;;;;;8.15;5.45;;;435.20;2355.20;;;;;;5074031;28;20486;-59
2023/09/11 01:41:20;;;;;;;8.27;5.68;;;435.30;2355.20;;;;;;5068381;28;20336;-59
2023/09/11 01:43:48;;;;;;;7.30;5.45;;;435.30;2355.20;;;;;;5073658;28;20047;-64
2023/09/11 01:46:16;;;;;;;12.35;6.32;;;435.30;2355.20;;;;;;5073929;28;20135;-59
2023/09/11 01:48:43;;;;;;;7.20;5.80;;;435.30;2355.20;;;;;;5082778;28;20033;-62
2023/09/11 01:51:11;;;;;;;8.38;5.55;;;435.30;2355.20;;;;;;5070018;28;20036;-60
2023/09/11 01:53:36;;;;;;;9.40;5.85;;;435.30;2355.20;;;;;;5061142;28;20033;-61
2023/09/11 01:56:04;;;;;;;7.72;5.88;;;435.20;2355.20;;;;;;5063240;28;20025;-58
2023/09/11 01:58:31;;;;;;;8.50;4.97;;;410.50;2355.20;;;;;;5076238;28;20493;-62
2023/09/11 02:00:57;;;;;;;12.02;5.07;;;410.50;2355.20;;;;;;5059166;28;20052;-58
2023/09/11 02:03:23;;;;;;;8.35;5.07;;;410.40;2355.20;;;;;;5063824;28;20064;-62
2023/09/11 02:05:49;;;;;;;8.52;6.25;;;410.40;2355.20;;;;;;5068936;28;20032;-68
2023/09/11 02:08:14;;;;;;;8.55;5.20;;;410.40;2355.20;;;;;;5061919;28;20024;-68
2023/09/11 02:10:40;;;;;;;7.80;5.22;;;410.40;2355.20;;;;;;5069191;28;20434;-59
2023/09/11 02:13:06;;;;;;;9.25;5.97;;;410.30;2355.20;;;;;;5062019;28;20127;-65
2023/09/11 02:15:31;;;;;;;9.70;5.60;;;410.40;2355.20;;;;;;5068564;28;20482;-60
2023/09/11 02:17:57;;;;;;;13.57;5.93;;;410.50;2355.20;;;;;;5076356;28;20023;-60
2023/09/11 02:20:23;;;;;;;9.30;5.28;;;410.50;2355.20;;;;;;5072624;28;20028;-59
2023/09/11 02:22:48;;;;;;;7.55;6.07;;;410.50;2355.20;;;;;;5065432;28;20028;-62
2023/09/11 02:25:14;;;;;;;8.10;5.50;;;410.50;2355.20;;;;;;5064797;28;20045;-59
2023/09/11 02:27:40;;;;;;;8.05;5.40;;;410.50;2355.20;;;;;;5077016;28;20463;-62
2023/09/11 02:30:06;;;;;;;6.85;5.28;;;410.50;2355.20;;;;;;5071820;28;20474;-60
2023/09/11 02:32:32;;;;;;;9.40;6.22;;;410.50;2355.20;;;;;;5064182;28;20085;-58
2023/09/11 02:34:58;;;;;;;8.70;5.32;;;410.40;2355.20;;;;;;5070163;28;20024;-62
2023/09/11 02:37:24;;;;;;;6.82;5.35;;;410.30;2355.20;;;;;;5069738;28;20557;-59
2023/09/11 02:39:49;;;;;;;8.52;5.68;;;410.30;2355.20;;;;;;5066866;28;20099;-62
2023/09/11 02:42:15;;;;;;;10.75;5.85;;;410.40;2355.20;;;;;;5070344;28;20032;-61
2023/09/11 02:44:41;;;;;;;8.00;5.97;;;410.20;2355.20;;;;;;5062976;28;20410;-61
2023/09/11 02:47:06;;;;;;;9.45;6.18;;;410.20;2355.20;;;;;;5073802;28;20029;-62
2023/09/11 02:49:32;;;;;;;10.93;5.35;;;410.20;2355.20;;;;;;5061599;28;20110;-61
2023/09/11 02:51:58;;;;;;;8.75;5.75;;;410.20;2355.20;;;;;;5061164;28;20024;-59
2023/09/11 02:54:23;;;;;;;7.07;5.07;;;410.20;2355.20;;;;;;5081260;28;20035;-60
2023/09/11 02:56:49;;;;;;;7.75;5.85;;;410.20;2355.20;;;;;;5079450;28;20060;-60
2023/09/11 02:59:15;;;;;;;9.38;5.82;;;410.00;2355.20;;;;;;5062944;28;20468;-59
2023/09/11 03:01:40;;;;;;;7.50;6.00;;;410.10;2355.20;;;;;;5089698;28;20038;-62
2023/09/11 03:04:06;;;;;;;8.90;5.65;;;410.10;2355.20;;;;;;5090228;28;20493;-59
2023/09/11 03:06:32;;;;;;;9.18;4.85;;;410.00;2355.20;;;;;;5090326;28;20040;-59
2023/09/11 03:08:57;;;;;;;8.48;6.10;;;410.10;2355.20;;;;;;5090162;28;20020;-59
2023/09/11 03:11:23;;;;;;;7.75;5.47;;;410.10;2355.20;;;;;;5090231;28;20040;-67
2023/09/11 03:13:49;;;;;;;7.40;6.13;;;410.10;2355.20;;;;;;5090136;28;20367;-59
2023/09/11 03:16:16;;;;;;;10.50;6.38;;;410.00;2355.20;;;;;;5088747;28;20436;-59
2023/09/11 03:18:42;;;;;;;8.85;5.57;;;410.00;2355.20;;;;;;5090932;28;20064;-59
2023/09/11 03:21:08;;;;;;;10.10;6.35;;;409.90;2355.20;;;;;;5090081;28;20016;-58
2023/09/11 03:23:35;;;;;;;8.32;6.05;;;409.70;2355.20;;;;;;5090016;28;20016;-61
2023/09/11 03:26:01;;;;;;;9.80;5.70;;;409.60;2355.20;;;;;;5090438;28;20427;-60
2023/09/11 03:28:29;;;;;;;9.57;6.32;;;384.90;2329.60;;;;;;5089924;28;20402;-59
2023/09/11 03:30:55;;;;;;;7.50;6.03;;;384.90;2329.60;;;;;;5089790;28;20023;-60
2023/09/11 03:33:20;;;;;;;8.60;6.00;;;384.90;2329.60;;;;;;5090060;28;20024;-59
2023/09/11 03:35:46;;;;;;;9.85;6.47;;;384.90;2329.60;;;;;;5089914;28;20466;-58
2023/09/11 03:38:13;;;;;;;6.80;6.05;;;384.80;2329.60;;;;;;5089988;28;20161;-58
2023/09/11 03:40:39;;;;;;;11.05;6.47;;;384.70;2329.60;;;;;;5090058;28;20016;-59
2023/09/11 03:43:05;;;;;;;9.90;6.82;;;384.90;2329.60;;;;;;5089726;28;20121;-61
2023/09/11 03:45:30;;;;;;;8.57;6.40;;;409.60;2355.20;;;;;;5088910;28;20081;-59
2023/09/11 03:47:56;;;;;;;9.02;6.07;;;409.60;2355.20;;;;;;5077679;28;20025;-58
2023/09/11 03:50:22;;;;;;;8.23;6.30;;;409.60;2355.20;;;;;;5087688;28;20334;-60
2023/09/11 03:52:48;;;;;;;8.65;6.45;;;409.70;2355.20;;;;;;5089609;28;20024;-59
2023/09/11 03:55:13;;;;;;;8.40;5.53;;;409.70;2355.20;;;;;;5089506;28;20408;-65
2023/09/11 03:57:39;;;;;;;7.90;6.50;;;409.80;2355.20;;;;;;5089590;28;20041;-61
2023/09/11 04:00:08;;;;;;;10.80;6.60;;;409.70;2355.20;;;;;;5089523;28;20020;-58
2023/09/11 04:02:35;;;;;;;9.07;6.50;;;409.80;2355.20;;;;;;5087841;28;20452;-58
2023/09/11 04:05:00;;;;;;;8.32;6.13;;;409.70;2355.20;;;;;;5089273;28;20032;-62
2023/09/11 04:07:26;;;;;;;9.13;6.80;;;409.70;2355.20;;;;;;5089097;28;20028;-60
2023/09/11 04:09:52;;;;;;;7.93;5.93;;;409.70;2355.20;;;;;;5089125;28;20008;-66
2023/09/11 04:12:17;;;;;;;11.98;5.90;;;409.80;2355.20;;;;;;5089241;28;20507;-64
2023/09/11 04:14:43;;;;;;;7.40;5.45;;;409.80;2355.20;;;;;;5088613;28;20020;-66
2023/09/11 04:17:10;;;;;;;8.20;5.50;;;409.70;2355.20;;;;;;5089477;28;20040;-67
2023/09/11 04:19:40;;;;;;;10.80;6.03;;;409.80;2355.20;;;;;;5088389;28;20016;-61
2023/09/11 04:22:06;;;;;;;8.38;6.55;;;409.80;2355.20;;;;;;5088797;28;20024;-67
2023/09/11 04:24:33;;;;;;;11.23;6.18;;;409.90;2355.20;;;;;;5088975;28;20497;-60
2023/09/11 04:26:58;;;;;;;8.43;5.65;;;409.80;2355.20;;;;;;5089095;28;20047;-63
2023/09/11 04:29:25;;;;;;;7.40;5.60;;;409.90;2355.20;;;;;;5088607;28;20024;-62
2023/09/11 04:31:51;;;;;;;8.23;6.05;;;409.90;2355.20;;;;;;5073368;28;20031;-62
2023/09/11 04:34:17;;;;;;;8.65;5.85;;;410.00;2355.20;;;;;;5086963;28;20032;-61
2023/09/11 04:36:43;;;;;;;9.15;5.85;;;410.10;2355.20;;;;;;5087009;28;20401;-65
2023/09/11 04:39:10;;;;;;;9.27;5.82;;;410.10;2355.20;;;;;;5071608;28;20036;-61
2023/09/11 04:41:35;;;;;;;9.10;5.60;;;410.00;2355.20;;;;;;5088777;28;20016;-58
2023/09/11 04:44:01;;;;;;;9.35;5.75;;;410.10;2355.20;;;;;;5088522;28;20478;-58
2023/09/11 04:46:27;;;;;;;10.02;6.68;;;410.10;2355.20;;;;;;5088213;28;20043;-70
2023/09/11 04:48:55;;;;;;;10.20;5.63;;;410.10;2355.20;;;;;;5088022;28;20032;-59
2023/09/11 04:51:20;;;;;;;7.35;5.70;;;410.20;2355.20;;;;;;5088554;28;20059;-60
2023/09/11 04:53:46;;;;;;;8.90;6.05;;;410.30;2355.20;;;;;;5088159;28;20138;-68
2023/09/11 04:56:12;;;;;;;11.02;6.25;;;410.40;2355.20;;;;;;5089383;28;20074;-59
2023/09/11 04:58:37;;;;;;;8.43;5.97;;;410.50;2355.20;;;;;;5083593;28;20026;-69
2023/09/11 05:01:03;;;;;;;7.20;6.25;;;435.20;2355.20;;;;;;5071874;28;20108;-63
2023/09/11 05:03:29;;;;;;;11.23;7.00;;;435.20;2355.20;;;;;;5092655;28;20020;-63
2023/09/11 05:05:55;;;;;;;10.02;5.28;;;435.20;2355.20;;;;;;5092179;28;20040;-58
2023/09/11 05:08:20;;;;;;;8.23;5.35;;;435.30;2355.20;;;;;;5092776;28;20024;-59
2023/09/11 05:10:46;;;;;;;8.73;6.30;;;435.50;2355.20;;;;;;5092606;28;20161;-58
2023/09/11 05:13:12;;;;;;;12.38;6.13;;;435.70;2355.20;;;;;;5092522;28;20020;-59
2023/09/11 05:15:38;;;;;;;6.95;4.60;;;435.90;2355.20;;;;;;5088472;28;20036;-64
2023/09/11 05:18:03;;;;;;;9.80;5.18;;;436.00;2355.20;;;;;;5082771;28;20016;-58
2023/09/11 05:20:30;;;;;;;8.10;5.50;;;460.80;2380.80;;;;;;5092967;28;20069;-58
2023/09/11 05:22:57;;;;;;;28.13;7.38;;;460.90;2380.80;;;;;;5092444;28;20032;-59
2023/09/11 05:25:23;;;;;;;10.38;5.38;;;461.00;2380.80;;;;;;5091995;28;20085;-59
2023/09/11 05:27:49;;;;;;;7.70;6.13;;;461.20;2380.80;;;;;;5093072;28;20046;-59
2023/09/11 05:30:15;;;;;;;6.57;5.00;;;461.30;2380.80;;;;;;5092494;28;20032;-58
2023/09/11 05:32:41;;;;;;;9.23;5.60;;;461.50;2380.80;;;;;;5092721;28;20084;-59
2023/09/11 05:35:07;;;;;;;10.02;6.38;;;461.60;2380.80;;;;;;5092355;28;20454;-60
2023/09/11 05:37:33;;;;;;;7.93;5.05;;;486.60;2380.80;;;;;;5092290;28;20030;-60
2023/09/11 05:40:00;;;;;;;7.90;5.75;;;486.80;2380.80;;;;;;5092446;28;20087;-62
2023/09/11 05:42:26;;;;;;;8.77;5.53;;;487.10;2380.80;;;;;;5091982;28;20020;-63
2023/09/11 05:44:52;;;;;;;11.98;6.15;;;487.10;2380.80;;;;;;5092253;28;20085;-58
2023/09/11 05:47:18;;;;;;;6.32;5.50;;;487.30;2380.80;;;;;;5092565;28;20035;-59
2023/09/11 05:49:43;;;;;;;8.98;5.60;;;487.00;2380.80;;;;;;5092319;28;20020;-63
2023/09/11 05:52:09;;;;;;;12.88;6.20;;;487.10;2380.80;;;;;;5092336;28;20031;-58
2023/09/11 05:54:35;;;;;;;10.23;5.13;;;487.00;2380.80;;;;;;5092168;28;20032;-65
2023/09/11 05:57:02;;;;;;;8.55;6.38;;;487.00;2380.80;;;;;;5092280;28;20024;-59
2023/09/11 05:59:28;;;;;;;16.17;6.43;;;512.30;2380.80;;;;;;5092130;28;20026;-62
2023/09/11 06:01:54;;;;;;;6.82;5.10;;;563.80;2432.00;;;;;;5091981;28;20016;-62
2023/09/11 12:36:54;;;;;;;10.65;5.22;;;793.70;1331.20;;;;;;5043535;22;1377964;-57
2023/09/11 12:39:20;;;;;;;7.03;5.00;;;793.80;1331.20;;;;;;5067467;28;20064;-57
2023/09/11 12:41:46;;;;;;;9.73;5.43;;;794.00;1331.20;;;;;;5068475;28;20024;-56
2023/09/11 12:44:12;;;;;;;6.90;5.78;;;793.70;1331.20;;;;;;5068849;28;20052;-56
2023/09/11 12:46:38;;;;;;;8.75;5.03;;;794.00;1382.40;;;;;;5062818;28;20029;-59
2023/09/11 12:49:05;;;;;;;8.35;5.95;;;794.00;1331.20;;;;;;5048505;28;20052;-57
2023/09/11 12:51:32;;;;;;;9.50;5.28;;;794.20;1305.60;;;;;;5048811;28;20598;-57
2023/09/11 12:53:58;;;;;;;7.70;6.07;;;794.10;1280.00;;;;;;5048033;28;20029;-57
2023/09/11 12:56:27;;;;;;;7.25;5.22;;;794.00;1305.60;;;;;;5055657;28;20051;-57
2023/09/11 12:58:55;;;;;;;11.70;6.60;;;794.00;1331.20;;;;;;5068357;28;20032;-57
2023/09/11 13:01:21;;;;;;;10.25;5.53;;;793.80;1356.80;;;;;;5049995;28;20418;-59
2023/09/11 13:03:47;;;;;;;11.90;6.60;;;794.00;1356.80;;;;;;5067658;28;20026;-58
2023/09/11 13:06:13;;;;;;;8.98;6.07;;;793.60;1356.80;;;;;;5067471;28;20052;-57
2023/09/11 13:08:40;;;;;;;8.88;6.35;;;793.70;1331.20;;;;;;5068038;28;20094;-57
2023/09/11 13:11:05;;;;;;;9.18;5.85;;;793.80;1356.80;;;;;;5067628;28;20067;-58
2023/09/11 13:13:31;;;;;;;9.90;6.22;;;793.70;1356.80;;;;;;5068083;28;20024;-57
2023/09/11 13:15:57;;;;;;;8.35;6.03;;;793.80;1331.20;;;;;;5049108;28;20421;-57
2023/09/11 13:18:23;;;;;;;7.95;5.68;;;794.00;1356.80;;;;;;5067450;28;20024;-58
2023/09/11 13:20:48;;;;;;;10.98;5.88;;;794.00;1331.20;;;;;;5067702;28;20017;-58
2023/09/11 13:23:14;;;;;;;10.38;5.70;;;794.00;1331.20;;;;;;5067691;28;20025;-58
2023/09/11 13:25:40;;;;;;;8.48;5.78;;;793.80;1331.20;;;;;;5067698;28;20047;-58
2023/09/11 13:28:06;;;;;;;11.18;6.13;;;794.00;1331.20;;;;;;5067506;28;20036;-58
2023/09/11 13:30:33;;;;;;;12.43;7.22;;;794.00;1331.20;;;;;;5067900;28;20029;-58
2023/09/11 13:32:59;;;;;;;9.80;5.53;;;794.00;1331.20;;;;;;5067490;28;20375;-57
2023/09/11 13:35:25;;;;;;;12.45;5.70;;;794.00;1356.80;;;;;;5067386;28;20029;-58
2023/09/11 13:37:50;;;;;;;9.48;5.65;;;794.00;1331.20;;;;;;5067832;28;20062;-57
2023/09/11 13:40:16;;;;;;;8.23;6.07;;;793.80;1356.80;;;;;;5067828;28;20482;-58
2023/09/11 13:42:43;;;;;;;13.85;6.38;;;793.80;1356.80;;;;;;5067538;28;20573;-57
2023/09/11 13:45:13;;;;;;;12.93;6.15;;;794.00;1331.20;;;;;;5067530;28;20374;-57
2023/09/11 13:47:39;;;;;;;8.43;5.32;;;793.70;1356.80;;;;;;5067726;28;20021;-58
2023/09/11 13:50:05;;;;;;;11.23;6.00;;;793.80;1331.20;;;;;;5067025;28;20432;-58
2023/09/11 13:52:30;;;;;;;14.43;6.20;;;793.70;1331.20;;;;;;5069902;28;20024;-57
2023/09/11 13:54:56;;;;;;;10.63;7.03;;;793.60;1331.20;;;;;;5069222;28;20382;-58
2023/09/11 13:57:22;;;;;;;11.93;5.78;;;793.70;1356.80;;;;;;5068757;28;20017;-58
2023/09/11 13:59:47;;;;;;;9.68;5.70;;;793.60;1356.80;;;;;;5068774;28;20052;-58
2023/09/11 14:02:13;;;;;;;8.98;5.70;;;768.90;1331.20;;;;;;5069314;28;20118;-59
2023/09/11 14:04:39;;;;;;;7.45;4.85;;;793.60;1356.80;;;;;;5069063;28;20025;-59
2023/09/11 14:07:04;;;;;;;9.63;5.78;;;768.90;1331.20;;;;;;5068539;28;20025;-58
2023/09/11 14:09:30;;;;;;;10.02;5.72;;;768.90;1331.20;;;;;;5068850;28;20036;-58
2023/09/11 14:11:56;;;;;;;9.52;5.43;;;768.90;1305.60;;;;;;5068493;28;20017;-58
2023/09/11 14:14:22;;;;;;;8.43;5.85;;;768.80;1331.20;;;;;;5068688;28;20031;-59
2023/09/11 14:16:47;;;;;;;8.27;5.40;;;768.90;1331.20;;;;;;5047654;28;20474;-57
2023/09/11 14:19:13;;;;;;;14.50;8.45;;;768.90;1331.20;;;;;;5068851;28;20029;-58
2023/09/11 14:21:39;;;;;;;13.35;6.18;;;768.80;1331.20;;;;;;5064346;28;20036;-57
2023/09/11 14:24:05;;;;;;;9.38;6.13;;;768.80;1305.60;;;;;;5049956;28;20460;-58
2023/09/11 14:26:30;;;;;;;8.52;5.95;;;768.60;1331.20;;;;;;5063403;28;20428;-57
2023/09/11 14:28:56;;;;;;;13.48;6.53;;;768.60;1331.20;;;;;;5068347;28;20139;-58
2023/09/11 14:31:22;;;;;;;9.98;5.80;;;768.60;1331.20;;;;;;5068748;28;20462;-57
2023/09/11 14:33:49;;;;;;;9.82;5.55;;;768.60;1331.20;;;;;;5068533;28;20149;-57
2023/09/11 14:36:15;;;;;;;11.52;5.40;;;768.60;1331.20;;;;;;5068084;28;20036;-57
2023/09/11 14:38:41;;;;;;;9.90;5.30;;;768.60;1305.60;;;;;;5069134;28;20027;-58
2023/09/11 14:41:08;;;;;;;10.90;5.90;;;768.60;1331.20;;;;;;5054938;28;20501;-58
2023/09/11 14:43:34;;;;;;;12.05;6.95;;;768.60;1331.20;;;;;;5068733;28;20452;-60
2023/09/11 14:45:59;;;;;;;14.40;5.38;;;768.60;1331.20;;;;;;5061617;28;20021;-58
2023/09/11 14:48:25;;;;;;;10.18;5.43;;;768.60;1331.20;;;;;;5048575;28;20043;-57
2023/09/11 14:50:51;;;;;;;9.25;5.60;;;768.50;1305.60;;;;;;5048545;28;20446;-57
2023/09/11 14:53:16;;;;;;;9.57;5.85;;;768.50;1331.20;;;;;;5067915;28;20027;-61
2023/09/11 14:55:43;;;;;;;12.48;5.95;;;768.50;1331.20;;;;;;5071728;28;20454;-58
2023/09/11 14:58:09;;;;;;;10.10;6.20;;;768.50;1331.20;;;;;;5072287;28;20032;-57
2023/09/11 15:00:36;;;;;;;9.65;5.07;;;768.60;1331.20;;;;;;5072335;28;20064;-57
2023/09/11 15:03:01;;;;;;;10.75;5.70;;;768.50;1331.20;;;;;;5065932;28;20066;-57
2023/09/11 15:05:27;;;;;;;8.63;6.05;;;768.40;1331.20;;;;;;5064830;28;20112;-58
2023/09/11 15:07:53;;;;;;;14.05;6.25;;;768.40;1331.20;;;;;;5071782;28;20035;-57
2023/09/11 15:10:18;;;;;;;10.85;5.43;;;768.30;1356.80;;;;;;5071785;28;20029;-57
2023/09/11 15:12:45;;;;;;;11.18;6.00;;;768.40;1356.80;;;;;;5053078;28;20063;-58
2023/09/11 15:15:11;;;;;;;9.55;6.00;;;768.30;1331.20;;;;;;5072125;28;20057;-57
2023/09/11 15:17:37;;;;;;;10.27;6.25;;;768.20;1356.80;;;;;;5071511;28;20036;-58
2023/09/11 15:20:03;;;;;;;9.95;6.53;;;768.20;1356.80;;;;;;5059401;28;20043;-57
2023/09/11 15:22:29;;;;;;;7.70;5.15;;;768.20;1356.80;;;;;;5071165;28;20375;-57
2023/09/11 15:24:55;;;;;;;11.20;5.60;;;768.00;1356.80;;;;;;5071922;28;20025;-58
2023/09/11 15:27:21;;;;;;;12.00;6.80;;;768.00;1356.80;;;;;;5052754;28;20032;-57
2023/09/11 15:29:47;;;;;;;8.82;6.45;;;743.30;1382.40;;;;;;5063877;28;20028;-57
2023/09/11 15:32:13;;;;;;;11.63;8.45;;;768.00;1382.40;;;;;;5071555;28;20039;-58
2023/09/11 15:34:40;;;;;;;14.35;6.72;;;768.10;1408.00;;;;;;5071752;28;20115;-58
2023/09/11 15:37:13;;;;;;;9.43;6.10;;;768.00;1382.40;;;;;;5068733;28;20469;-58
2023/09/11 15:39:40;;;;;;;9.40;5.63;;;743.30;1408.00;;;;;;5056412;28;20032;-58
2023/09/11 15:42:06;;;;;;;10.65;6.50;;;743.30;1382.40;;;;;;5049984;28;20480;-58
2023/09/11 15:44:31;;;;;;;15.68;5.82;;;743.30;1382.40;;;;;;5064177;28;20557;-57
2023/09/11 15:46:57;;;;;;;9.48;5.47;;;743.30;1408.00;;;;;;5068828;28;20074;-57
2023/09/11 15:49:23;;;;;;;11.45;6.60;;;743.10;1408.00;;;;;;5070251;28;20033;-58
2023/09/11 15:51:48;;;;;;;11.90;6.15;;;743.10;1408.00;;;;;;5069814;28;20546;-57
2023/09/11 15:54:14;;;;;;;12.13;6.85;;;743.10;1433.60;;;;;;5056424;28;20175;-58
2023/09/11 15:56:40;;;;;;;19.52;7.72;;;742.90;1433.60;;;;;;5062586;28;20029;-58
2023/09/11 15:59:05;;;;;;;14.02;6.35;;;742.90;1433.60;;;;;;5049722;28;20024;-57
2023/09/11 16:01:31;;;;;;;11.52;6.13;;;742.90;1459.20;;;;;;5069760;28;20411;-57
2023/09/11 16:03:57;;;;;;;11.60;5.32;;;742.70;1459.20;;;;;;5070646;28;20028;-58
2023/09/11 16:06:22;;;;;;;11.65;6.10;;;742.70;1459.20;;;;;;5063974;28;20047;-58
2023/09/11 16:08:48;;;;;;;11.73;5.93;;;742.60;1459.20;;;;;;5064895;28;20033;-57
2023/09/11 16:11:14;;;;;;;10.68;5.22;;;742.60;1484.80;;;;;;5071047;28;20584;-58
2023/09/11 16:13:40;;;;;;;8.40;5.95;;;742.60;1484.80;;;;;;5071368;28;20036;-57
2023/09/11 16:16:05;;;;;;;10.25;5.32;;;742.50;1484.80;;;;;;5063596;28;20052;-57
2023/09/11 16:18:31;;;;;;;10.05;5.47;;;742.50;1510.40;;;;;;5051222;28;20384;-57
2023/09/11 16:20:57;;;;;;;9.98;5.72;;;742.40;1510.40;;;;;;5063814;28;20013;-59
2023/09/11 16:23:23;;;;;;;9.93;5.93;;;717.70;1484.80;;;;;;5064328;28;20500;-57
2023/09/11 16:25:48;;;;;;;11.32;5.53;;;717.60;1484.80;;;;;;5046373;28;20025;-57
2023/09/11 16:28:15;;;;;;;12.77;6.15;;;717.50;1510.40;;;;;;5050841;28;20045;-57
2023/09/11 16:30:41;;;;;;;12.38;5.85;;;717.40;1510.40;;;;;;5070166;28;20099;-60
2023/09/11 16:33:07;;;;;;;11.50;5.63;;;717.30;1510.40;;;;;;5070564;28;20431;-57
2023/09/11 16:35:35;;;;;;;17.08;6.88;;;717.20;1536.00;;;;;;5051095;28;20040;-57
2023/09/11 16:38:00;;;;;;;13.55;6.13;;;717.10;1536.00;;;;;;5063317;28;20086;-57
2023/09/11 16:40:26;;;;;;;16.83;6.95;;;717.00;1561.60;;;;;;5070162;28;20423;-57
2023/09/11 16:42:52;;;;;;;11.32;6.47;;;716.90;1587.20;;;;;;5070094;28;20032;-57
2023/09/11 16:45:19;;;;;;;9.00;6.38;;;692.10;1587.20;;;;;;5056989;28;20467;-57
2023/09/11 16:47:45;;;;;;;10.05;6.05;;;691.90;1587.20;;;;;;5069711;28;20044;-58
2023/09/11 16:50:12;;;;;;;9.60;6.57;;;691.90;1587.20;;;;;;5056966;28;20370;-58
2023/09/11 16:52:38;;;;;;;12.90;6.10;;;691.70;1638.40;;;;;;5070017;28;20071;-61
2023/09/11 16:55:06;;;;;;;13.82;6.38;;;691.60;1638.40;;;;;;5054609;28;20075;-58
2023/09/11 16:57:32;;;;;;;13.02;6.07;;;691.40;1664.00;;;;;;5063137;28;20021;-57
2023/09/11 17:00:00;;;;;;;9.23;6.32;;;691.30;1664.00;;;;;;5062860;28;20072;-57
2023/09/11 17:02:26;;;;;;;13.98;6.43;;;691.20;1689.60;;;;;;5056426;28;20480;-58
2023/09/11 17:04:52;;;;;;;11.60;6.07;;;666.50;1689.60;;;;;;5049080;28;20025;-57
2023/09/11 17:07:18;;;;;;;8.50;5.85;;;666.30;1715.20;;;;;;5054588;28;20351;-58
2023/09/11 17:09:44;;;;;;;10.30;5.80;;;666.20;1715.20;;;;;;5068226;28;20048;-58
2023/09/11 17:12:10;;;;;;;11.18;6.10;;;666.00;1715.20;;;;;;5067867;28;20078;-59
2023/09/11 17:14:36;;;;;;;8.18;5.90;;;665.90;1715.20;;;;;;5068612;28;20086;-59
2023/09/11 17:17:02;;;;;;;10.82;6.07;;;665.70;1740.80;;;;;;5067820;28;20512;-60
2023/09/11 17:19:28;;;;;;;10.40;6.40;;;665.60;1740.80;;;;;;5067825;28;20025;-61
2023/09/11 17:21:53;;;;;;;13.93;5.70;;;640.90;1715.20;;;;;;5054722;28;20055;-58
2023/09/11 17:24:19;;;;;;;8.05;5.55;;;640.90;1740.80;;;;;;5067703;28;20040;-59
2023/09/11 17:26:45;;;;;;;13.18;6.30;;;640.60;1766.40;;;;;;5067211;28;20074;-59
2023/09/11 17:29:10;;;;;;;10.18;6.40;;;640.60;1792.00;;;;;;5048347;28;20068;-58
2023/09/11 17:31:36;;;;;;;12.68;6.60;;;640.50;1817.60;;;;;;5061483;28;20025;-58
2023/09/11 17:34:03;;;;;;;11.80;6.35;;;640.20;1817.60;;;;;;5054552;28;20039;-57
2023/09/11 17:36:29;;;;;;;11.43;6.63;;;640.10;1817.60;;;;;;5067609;28;20114;-57
2023/09/11 17:38:55;;;;;;;9.25;5.93;;;640.10;1817.60;;;;;;5067684;28;20462;-58
2023/09/11 17:41:20;;;;;;;13.10;5.70;;;640.00;1817.60;;;;;;5068100;28;20104;-59
2023/09/11 17:43:46;;;;;;;14.85;6.60;;;640.00;1817.60;;;;;;5067591;28;20727;-59
2023/09/11 17:46:14;;;;;;;8.63;6.03;;;615.20;1817.60;;;;;;5067154;28;20039;-58
2023/09/11 17:48:44;;;;;;;11.70;6.20;;;615.20;1843.20;;;;;;5068119;28;20033;-58
2023/09/11 17:51:11;;;;;;;11.13;6.63;;;615.10;1843.20;;;;;;5067529;28;20028;-58
2023/09/11 17:53:36;;;;;;;15.70;6.18;;;615.00;1868.80;;;;;;5067509;28;20028;-60
2023/09/11 17:56:02;;;;;;;9.02;6.47;;;615.00;1868.80;;;;;;5066258;28;20474;-58
2023/09/11 17:58:30;;;;;;;10.60;5.75;;;614.90;1868.80;;;;;;5047631;28;20032;-58
2023/09/11 18:00:56;;;;;;;14.60;6.15;;;614.80;1868.80;;;;;;5060652;28;20028;-59
2023/09/11 18:03:22;;;;;;;11.63;5.63;;;614.70;1894.40;;;;;;5056056;28;20034;-59
2023/09/11 18:05:50;;;;;;;10.77;5.72;;;614.60;1920.00;;;;;;5067571;28;20095;-59
2023/09/11 18:08:16;;;;;;;17.67;6.68;;;614.60;1894.40;;;;;;5058908;28;20479;-58
2023/09/11 18:10:42;;;;;;;12.10;5.88;;;614.50;1894.40;;;;;;5062372;28;20036;-58
2023/09/11 18:13:07;;;;;;;23.55;6.38;;;614.40;1920.00;;;;;;5058288;28;20029;-57
2023/09/11 18:15:33;;;;;;;14.98;7.43;;;589.70;1894.40;;;;;;5062874;28;20031;-58
2023/09/11 18:17:59;;;;;;;18.27;6.22;;;589.70;1894.40;;;;;;5067047;28;20027;-62
2023/09/11 18:20:26;;;;;;;13.40;5.93;;;589.70;1894.40;;;;;;5066823;28;20029;-60
2023/09/11 18:22:51;;;;;;;7.93;5.85;;;589.70;1920.00;;;;;;5066688;28;20102;-60
2023/09/11 18:25:19;;;;;;;10.70;6.15;;;589.70;1894.40;;;;;;5046889;28;20670;-61
2023/09/11 18:27:45;;;;;;;16.05;6.63;;;589.60;1920.00;;;;;;5046150;28;20063;-61
2023/09/11 18:30:11;;;;;;;11.15;5.82;;;589.40;1971.20;;;;;;5044333;28;20021;-61
2023/09/11 18:32:37;;;;;;;11.90;6.15;;;589.50;1894.40;;;;;;5034730;28;20025;-59
2023/09/11 18:35:03;;;;;;;14.15;6.00;;;589.40;1945.60;;;;;;5044838;28;20621;-58
2023/09/11 18:37:29;;;;;;;14.27;6.32;;;589.20;1996.80;;;;;;5051123;28;20053;-58
2023/09/11 18:39:55;;;;;;;11.38;6.25;;;589.30;1945.60;;;;;;5032359;28;20041;-58
2023/09/11 18:42:21;;;;;;;10.45;5.78;;;589.20;1971.20;;;;;;5050757;28;20094;-64